sensor_id;sensor_type;location;lat;lon;timestamp;pressure;altitude;pressure_sealevel;temperature;humidity
80424;BME280;69765;47.668;19.326;2023-06-22T00:02:55;99344.78;;;20.97;79.39
80424;BME280;69765;47.668;19.326;2023-06-22T00:05:57;99356.97;;;20.98;79.95
80424;BME280;69765;47.668;19.326;2023-06-22T00:09:00;99343.19;;;21.02;81.45
80424;BME280;69765;47.668;19.326;2023-06-22T00:12:02;99324.78;;;20.96;81.08
80424;BME280;69765;47.668;19.326;2023-06-22T00:15:05;99325.66;;;20.95;82.15
80424;BME280;69765;47.668;19.326;2023-06-22T00:18:08;99330.38;;;20.78;80.99
80424;BME280;69765;47.668;19.326;2023-06-22T00:21:11;99332.75;;;20.12;84.37
80424;BME280;69765;47.668;19.326;2023-06-22T00:24:14;99328.56;;;20.17;85.17
80424;BME280;69765;47.668;19.326;2023-06-22T00:27:17;99321.06;;;20.28;83.74
80424;BME280;69765;47.668;19.326;2023-06-22T00:30:19;99329.53;;;20.48;82.30
80424;BME280;69765;47.668;19.326;2023-06-22T00:33:21;99328.72;;;20.50;82.48
80424;BME280;69765;47.668;19.326;2023-06-22T00:36:24;99339.06;;;20.47;83.45
80424;BME280;69765;47.668;19.326;2023-06-22T00:39:26;99335.31;;;20.39;83.67
80424;BME280;69765;47.668;19.326;2023-06-22T00:42:29;99342.28;;;20.41;84.30
80424;BME280;69765;47.668;19.326;2023-06-22T00:45:31;99336.28;;;20.42;83.91
80424;BME280;69765;47.668;19.326;2023-06-22T00:48:34;99341.41;;;20.41;83.21
80424;BME280;69765;47.668;19.326;2023-06-22T00:51:38;99347.03;;;20.25;83.84
80424;BME280;69765;47.668;19.326;2023-06-22T00:54:41;99351.34;;;20.24;83.82
80424;BME280;69765;47.668;19.326;2023-06-22T00:57:47;99354.84;;;20.26;83.44
80424;BME280;69765;47.668;19.326;2023-06-22T01:00:51;99353.25;;;20.30;83.74
80424;BME280;69765;47.668;19.326;2023-06-22T01:03:54;99348.06;;;20.31;83.60
80424;BME280;69765;47.668;19.326;2023-06-22T01:10:35;99336.97;;;20.08;84.95
80424;BME280;69765;47.668;19.326;2023-06-22T01:16:51;99360.34;;;20.07;84.56
80424;BME280;69765;47.668;19.326;2023-06-22T01:19:57;99373.44;;;20.10;86.09
80424;BME280;69765;47.668;19.326;2023-06-22T01:23:33;99372.34;;;20.03;85.22
80424;BME280;69765;47.668;19.326;2023-06-22T01:27:20;99375.09;;;20.08;83.91
80424;BME280;69765;47.668;19.326;2023-06-22T01:30:02;99376.34;;;20.19;84.65
80424;BME280;69765;47.668;19.326;2023-06-22T01:33:11;99383.63;;;20.31;83.92
80424;BME280;69765;47.668;19.326;2023-06-22T01:36:14;99371.41;;;20.28;83.85
80424;BME280;69765;47.668;19.326;2023-06-22T01:39:21;99377.50;;;20.29;83.88
80424;BME280;69765;47.668;19.326;2023-06-22T01:42:27;99367.13;;;20.30;83.51
80424;BME280;69765;47.668;19.326;2023-06-22T01:45:30;99368.28;;;20.40;83.74
80424;BME280;69765;47.668;19.326;2023-06-22T01:48:32;99374.50;;;20.45;83.18
80424;BME280;69765;47.668;19.326;2023-06-22T01:51:36;99374.03;;;20.28;83.52
80424;BME280;69765;47.668;19.326;2023-06-22T01:54:39;99365.69;;;20.11;84.22
80424;BME280;69765;47.668;19.326;2023-06-22T01:57:42;99369.88;;;20.06;84.44
80424;BME280;69765;47.668;19.326;2023-06-22T02:00:49;99364.50;;;20.02;84.58
80424;BME280;69765;47.668;19.326;2023-06-22T02:04:20;99370.44;;;19.98;85.25
80424;BME280;69765;47.668;19.326;2023-06-22T02:07:31;99379.88;;;19.94;85.40
80424;BME280;69765;47.668;19.326;2023-06-22T02:10:38;99378.59;;;19.81;86.20
80424;BME280;69765;47.668;19.326;2023-06-22T02:13:44;99372.13;;;19.69;87.04
80424;BME280;69765;47.668;19.326;2023-06-22T02:16:47;99375.56;;;19.68;86.79
80424;BME280;69765;47.668;19.326;2023-06-22T02:19:49;99365.34;;;19.74;86.32
80424;BME280;69765;47.668;19.326;2023-06-22T02:22:51;99367.06;;;19.73;86.06
80424;BME280;69765;47.668;19.326;2023-06-22T02:25:54;99369.31;;;19.62;87.18
80424;BME280;69765;47.668;19.326;2023-06-22T02:28:59;99370.22;;;19.39;87.94
80424;BME280;69765;47.668;19.326;2023-06-22T02:32:01;99368.25;;;19.32;87.86
80424;BME280;69765;47.668;19.326;2023-06-22T02:35:04;99395.78;;;19.52;87.28
80424;BME280;69765;47.668;19.326;2023-06-22T02:38:06;99397.91;;;19.62;87.36
80424;BME280;69765;47.668;19.326;2023-06-22T02:41:10;99395.56;;;19.70;86.64
80424;BME280;69765;47.668;19.326;2023-06-22T02:44:15;99407.94;;;19.77;86.13
80424;BME280;69765;47.668;19.326;2023-06-22T02:47:18;99401.75;;;19.74;86.42
80424;BME280;69765;47.668;19.326;2023-06-22T02:50:20;99401.16;;;19.82;86.04
80424;BME280;69765;47.668;19.326;2023-06-22T02:53:23;99393.31;;;19.81;86.02
80424;BME280;69765;47.668;19.326;2023-06-22T02:56:25;99393.59;;;19.90;85.50
80424;BME280;69765;47.668;19.326;2023-06-22T02:59:33;99384.88;;;19.88;85.42
80424;BME280;69765;47.668;19.326;2023-06-22T03:02:43;99382.84;;;19.54;86.63
80424;BME280;69765;47.668;19.326;2023-06-22T03:05:46;99378.88;;;19.63;86.06
80424;BME280;69765;47.668;19.326;2023-06-22T03:08:50;99384.91;;;19.62;86.54
80424;BME280;69765;47.668;19.326;2023-06-22T03:11:53;99382.69;;;19.75;85.82
80424;BME280;69765;47.668;19.326;2023-06-22T03:14:56;99379.88;;;19.67;85.62
80424;BME280;69765;47.668;19.326;2023-06-22T03:17:59;99376.44;;;19.68;85.88
80424;BME280;69765;47.668;19.326;2023-06-22T03:21:02;99376.25;;;19.62;85.49
80424;BME280;69765;47.668;19.326;2023-06-22T03:24:06;99386.97;;;19.73;84.52
80424;BME280;69765;47.668;19.326;2023-06-22T03:27:09;99384.00;;;19.87;83.05
80424;BME280;69765;47.668;19.326;2023-06-22T03:30:12;99382.75;;;20.03;83.70
80424;BME280;69765;47.668;19.326;2023-06-22T03:33:14;99380.44;;;20.12;83.47
80424;BME280;69765;47.668;19.326;2023-06-22T03:36:18;99372.06;;;20.21;82.07
80424;BME280;69765;47.668;19.326;2023-06-22T03:39:24;99384.78;;;20.12;81.25
80424;BME280;69765;47.668;19.326;2023-06-22T03:42:27;99379.00;;;20.22;81.41
80424;BME280;69765;47.668;19.326;2023-06-22T03:45:30;99380.28;;;20.35;82.48
80424;BME280;69765;47.668;19.326;2023-06-22T03:48:32;99376.00;;;20.37;82.67
80424;BME280;69765;47.668;19.326;2023-06-22T03:51:35;99376.09;;;20.40;82.78
80424;BME280;69765;47.668;19.326;2023-06-22T03:54:37;99385.81;;;20.46;82.50
80424;BME280;69765;47.668;19.326;2023-06-22T03:57:39;99381.59;;;20.49;82.91
80424;BME280;69765;47.668;19.326;2023-06-22T04:00:42;99372.97;;;20.50;82.68
80424;BME280;69765;47.668;19.326;2023-06-22T04:03:44;99386.22;;;20.58;82.25
80424;BME280;69765;47.668;19.326;2023-06-22T04:06:47;99388.81;;;20.58;82.56
80424;BME280;69765;47.668;19.326;2023-06-22T04:09:49;99403.44;;;20.54;82.19
80424;BME280;69765;47.668;19.326;2023-06-22T04:12:51;99401.22;;;20.66;82.01
80424;BME280;69765;47.668;19.326;2023-06-22T04:15:54;99401.56;;;20.49;82.69
80424;BME280;69765;47.668;19.326;2023-06-22T04:18:56;99398.28;;;20.56;82.87
80424;BME280;69765;47.668;19.326;2023-06-22T04:21:58;99398.66;;;20.68;83.10
80424;BME280;69765;47.668;19.326;2023-06-22T04:25:01;99400.41;;;20.69;81.50
80424;BME280;69765;47.668;19.326;2023-06-22T04:28:03;99399.94;;;20.82;80.77
80424;BME280;69765;47.668;19.326;2023-06-22T04:31:06;99408.16;;;20.96;82.19
80424;BME280;69765;47.668;19.326;2023-06-22T04:34:09;99396.28;;;21.07;80.59
80424;BME280;69765;47.668;19.326;2023-06-22T04:37:11;99401.06;;;21.22;79.95
80424;BME280;69765;47.668;19.326;2023-06-22T04:40:17;99393.56;;;21.33;78.18
80424;BME280;69765;47.668;19.326;2023-06-22T04:43:20;99396.47;;;21.45;77.54
80424;BME280;69765;47.668;19.326;2023-06-22T04:46:22;99395.22;;;21.64;78.12
80424;BME280;69765;47.668;19.326;2023-06-22T04:49:25;99388.47;;;21.72;77.03
80424;BME280;69765;47.668;19.326;2023-06-22T04:52:34;99393.16;;;21.85;76.64
80424;BME280;69765;47.668;19.326;2023-06-22T04:55:36;99395.28;;;22.02;75.83
80424;BME280;69765;47.668;19.326;2023-06-22T04:58:40;99401.66;;;22.11;76.40
80424;BME280;69765;47.668;19.326;2023-06-22T05:01:42;99400.28;;;22.27;75.24
80424;BME280;69765;47.668;19.326;2023-06-22T05:04:44;99401.28;;;22.32;74.81
80424;BME280;69765;47.668;19.326;2023-06-22T05:07:50;99393.41;;;22.71;73.16
80424;BME280;69765;47.668;19.326;2023-06-22T05:10:54;99392.44;;;22.66;72.67
80424;BME280;69765;47.668;19.326;2023-06-22T05:14:07;99394.34;;;22.74;72.39
80424;BME280;69765;47.668;19.326;2023-06-22T05:17:09;99394.38;;;22.77;72.49
80424;BME280;69765;47.668;19.326;2023-06-22T05:20:17;99406.09;;;22.94;73.03
80424;BME280;69765;47.668;19.326;2023-06-22T05:23:20;99406.75;;;22.85;73.02
80424;BME280;69765;47.668;19.326;2023-06-22T05:26:23;99414.28;;;23.11;72.27
80424;BME280;69765;47.668;19.326;2023-06-22T05:29:26;99418.44;;;23.45;71.17
80424;BME280;69765;47.668;19.326;2023-06-22T05:32:28;99417.94;;;23.64;70.45
80424;BME280;69765;47.668;19.326;2023-06-22T05:35:31;99425.06;;;23.71;69.99
80424;BME280;69765;47.668;19.326;2023-06-22T05:38:33;99420.16;;;23.91;69.16
80424;BME280;69765;47.668;19.326;2023-06-22T05:41:35;99414.50;;;24.20;68.91
80424;BME280;69765;47.668;19.326;2023-06-22T05:44:38;99423.31;;;23.74;68.96
80424;BME280;69765;47.668;19.326;2023-06-22T05:47:42;99427.22;;;23.98;68.52
80424;BME280;69765;47.668;19.326;2023-06-22T05:50:45;99430.34;;;24.31;68.11
80424;BME280;69765;47.668;19.326;2023-06-22T05:53:47;99443.88;;;24.57;65.16
80424;BME280;69765;47.668;19.326;2023-06-22T05:56:51;99446.78;;;24.77;65.55
80424;BME280;69765;47.668;19.326;2023-06-22T05:59:54;99449.31;;;24.70;65.85
80424;BME280;69765;47.668;19.326;2023-06-22T06:02:56;99440.44;;;25.28;63.77
80424;BME280;69765;47.668;19.326;2023-06-22T06:05:59;99447.56;;;25.39;62.92
80424;BME280;69765;47.668;19.326;2023-06-22T06:09:01;99442.50;;;25.59;60.87
80424;BME280;69765;47.668;19.326;2023-06-22T06:12:06;99442.31;;;25.39;60.77
80424;BME280;69765;47.668;19.326;2023-06-22T06:15:09;99448.06;;;25.85;59.92
80424;BME280;69765;47.668;19.326;2023-06-22T06:18:13;99450.22;;;25.44;58.74
80424;BME280;69765;47.668;19.326;2023-06-22T06:21:15;99452.22;;;25.66;58.12
80424;BME280;69765;47.668;19.326;2023-06-22T06:24:17;99453.69;;;25.40;59.37
80424;BME280;69765;47.668;19.326;2023-06-22T06:27:20;99450.81;;;25.99;57.20
80424;BME280;69765;47.668;19.326;2023-06-22T06:30:22;99452.34;;;25.76;57.59
80424;BME280;69765;47.668;19.326;2023-06-22T06:33:25;99450.56;;;25.74;57.41
80424;BME280;69765;47.668;19.326;2023-06-22T06:36:27;99450.34;;;26.49;54.10
80424;BME280;69765;47.668;19.326;2023-06-22T06:39:29;99451.63;;;27.20;51.85
80424;BME280;69765;47.668;19.326;2023-06-22T06:42:32;99448.16;;;27.47;52.31
80424;BME280;69765;47.668;19.326;2023-06-22T06:45:34;99451.75;;;27.80;49.67
80424;BME280;69765;47.668;19.326;2023-06-22T06:48:37;99460.56;;;28.12;50.78
80424;BME280;69765;47.668;19.326;2023-06-22T06:51:39;99451.78;;;28.16;49.27
80424;BME280;69765;47.668;19.326;2023-06-22T06:54:41;99444.72;;;28.55;48.18
80424;BME280;69765;47.668;19.326;2023-06-22T06:57:44;99442.97;;;28.60;47.51
80424;BME280;69765;47.668;19.326;2023-06-22T07:00:50;99446.34;;;29.10;45.96
80424;BME280;69765;47.668;19.326;2023-06-22T07:03:52;99450.91;;;28.14;47.77
80424;BME280;69765;47.668;19.326;2023-06-22T07:07:04;99445.53;;;28.89;46.82
80424;BME280;69765;47.668;19.326;2023-06-22T07:10:11;99449.03;;;28.91;45.90
80424;BME280;69765;47.668;19.326;2023-06-22T07:13:14;99437.44;;;29.31;46.66
80424;BME280;69765;47.668;19.326;2023-06-22T07:16:16;99437.31;;;29.58;44.08
80424;BME280;69765;47.668;19.326;2023-06-22T07:19:28;99442.91;;;28.95;47.07
80424;BME280;69765;47.668;19.326;2023-06-22T07:22:30;99430.50;;;30.42;44.22
80424;BME280;69765;47.668;19.326;2023-06-22T07:25:32;99433.72;;;31.44;41.73
80424;BME280;69765;47.668;19.326;2023-06-22T07:28:35;99434.19;;;31.07;40.84
80424;BME280;69765;47.668;19.326;2023-06-22T07:31:40;99441.06;;;30.42;41.54
80424;BME280;69765;47.668;19.326;2023-06-22T07:34:43;99438.38;;;30.49;42.50
80424;BME280;69765;47.668;19.326;2023-06-22T07:37:45;99430.00;;;30.89;41.77
80424;BME280;69765;47.668;19.326;2023-06-22T07:40:48;99431.88;;;29.78;43.92
80424;BME280;69765;47.668;19.326;2023-06-22T07:43:50;99445.16;;;29.70;44.10
80424;BME280;69765;47.668;19.326;2023-06-22T07:46:53;99435.84;;;30.34;42.47
80424;BME280;69765;47.668;19.326;2023-06-22T07:49:58;99440.72;;;29.75;42.89
80424;BME280;69765;47.668;19.326;2023-06-22T07:53:03;99437.44;;;29.37;43.95
80424;BME280;69765;47.668;19.326;2023-06-22T07:56:05;99428.66;;;29.33;43.80
80424;BME280;69765;47.668;19.326;2023-06-22T07:59:09;99433.94;;;31.30;40.86
80424;BME280;69765;47.668;19.326;2023-06-22T08:02:12;99430.19;;;32.02;38.84
80424;BME280;69765;47.668;19.326;2023-06-22T08:05:15;99418.97;;;32.83;37.12
80424;BME280;69765;47.668;19.326;2023-06-22T08:08:20;99419.97;;;31.76;38.45
80424;BME280;69765;47.668;19.326;2023-06-22T08:11:22;99422.69;;;32.28;37.49
80424;BME280;69765;47.668;19.326;2023-06-22T08:14:29;99423.00;;;33.46;35.77
80424;BME280;69765;47.668;19.326;2023-06-22T08:17:31;99421.72;;;32.33;37.15
80424;BME280;69765;47.668;19.326;2023-06-22T08:20:34;99422.41;;;30.57;39.60
80424;BME280;69765;47.668;19.326;2023-06-22T08:23:36;99421.91;;;31.00;41.53
80424;BME280;69765;47.668;19.326;2023-06-22T08:26:39;99415.63;;;30.32;39.69
80424;BME280;69765;47.668;19.326;2023-06-22T08:29:41;99424.09;;;30.64;39.82
80424;BME280;69765;47.668;19.326;2023-06-22T08:32:44;99430.69;;;31.07;39.07
80424;BME280;69765;47.668;19.326;2023-06-22T08:35:47;99416.44;;;32.77;35.35
80424;BME280;69765;47.668;19.326;2023-06-22T08:38:49;99413.78;;;32.31;35.67
80424;BME280;69765;47.668;19.326;2023-06-22T08:41:53;99414.31;;;31.42;37.22
80424;BME280;69765;47.668;19.326;2023-06-22T08:44:55;99413.63;;;32.87;34.01
80424;BME280;69765;47.668;19.326;2023-06-22T08:47:57;99405.75;;;32.82;34.08
80424;BME280;69765;47.668;19.326;2023-06-22T08:51:00;99415.63;;;32.75;35.69
80424;BME280;69765;47.668;19.326;2023-06-22T08:54:05;99400.28;;;32.90;33.96
80424;BME280;69765;47.668;19.326;2023-06-22T08:57:07;99407.31;;;31.96;35.32
80424;BME280;69765;47.668;19.326;2023-06-22T09:00:10;99398.16;;;32.64;34.90
80424;BME280;69765;47.668;19.326;2023-06-22T09:03:19;99392.09;;;33.79;33.93
80424;BME280;69765;47.668;19.326;2023-06-22T09:06:23;99393.31;;;34.36;31.89
80424;BME280;69765;47.668;19.326;2023-06-22T09:09:26;99391.84;;;34.24;33.04
80424;BME280;69765;47.668;19.326;2023-06-22T09:12:29;99397.13;;;35.21;31.48
80424;BME280;69765;47.668;19.326;2023-06-22T09:15:33;99393.50;;;35.51;31.33
80424;BME280;69765;47.668;19.326;2023-06-22T09:18:36;99389.28;;;34.85;31.65
80424;BME280;69765;47.668;19.326;2023-06-22T09:21:39;99391.28;;;35.08;31.31
80424;BME280;69765;47.668;19.326;2023-06-22T09:24:41;99386.59;;;36.00;30.19
80424;BME280;69765;47.668;19.326;2023-06-22T09:27:43;99380.84;;;36.63;29.62
80424;BME280;69765;47.668;19.326;2023-06-22T09:30:46;99380.69;;;35.06;31.20
80424;BME280;69765;47.668;19.326;2023-06-22T09:33:48;99379.88;;;35.32;30.85
80424;BME280;69765;47.668;19.326;2023-06-22T09:36:50;99380.66;;;34.12;32.72
80424;BME280;69765;47.668;19.326;2023-06-22T09:39:53;99372.50;;;33.82;33.75
80424;BME280;69765;47.668;19.326;2023-06-22T09:42:55;99378.66;;;35.71;30.74
80424;BME280;69765;47.668;19.326;2023-06-22T09:45:58;99374.91;;;35.50;30.06
80424;BME280;69765;47.668;19.326;2023-06-22T09:49:00;99376.78;;;35.46;30.98
80424;BME280;69765;47.668;19.326;2023-06-22T09:52:02;99372.47;;;37.86;27.67
80424;BME280;69765;47.668;19.326;2023-06-22T09:55:05;99374.75;;;38.77;27.88
80424;BME280;69765;47.668;19.326;2023-06-22T09:58:08;99378.25;;;38.38;26.73
80424;BME280;69765;47.668;19.326;2023-06-22T10:01:10;99373.03;;;37.94;26.52
80424;BME280;69765;47.668;19.326;2023-06-22T10:04:13;99369.69;;;38.90;26.54
80424;BME280;69765;47.668;19.326;2023-06-22T10:07:16;99378.91;;;39.94;24.18
80424;BME280;69765;47.668;19.326;2023-06-22T10:10:19;99376.72;;;39.11;25.00
80424;BME280;69765;47.668;19.326;2023-06-22T10:13:21;99380.09;;;36.82;30.29
80424;BME280;69765;47.668;19.326;2023-06-22T10:16:30;99379.44;;;35.74;30.18
80424;BME280;69765;47.668;19.326;2023-06-22T10:19:32;99376.91;;;38.07;29.01
80424;BME280;69765;47.668;19.326;2023-06-22T10:22:35;99379.22;;;37.95;26.55
80424;BME280;69765;47.668;19.326;2023-06-22T10:25:41;99371.91;;;38.41;26.54
80424;BME280;69765;47.668;19.326;2023-06-22T10:28:48;99368.47;;;38.57;25.71
80424;BME280;69765;47.668;19.326;2023-06-22T10:31:58;99362.69;;;39.25;24.59
80424;BME280;69765;47.668;19.326;2023-06-22T10:35:01;99370.63;;;39.99;24.49
80424;BME280;69765;47.668;19.326;2023-06-22T10:38:04;99368.97;;;41.46;21.78
80424;BME280;69765;47.668;19.326;2023-06-22T10:41:07;99369.84;;;41.93;21.38
80424;BME280;69765;47.668;19.326;2023-06-22T10:44:09;99363.50;;;41.78;21.88
80424;BME280;69765;47.668;19.326;2023-06-22T10:47:12;99369.47;;;42.57;20.25
80424;BME280;69765;47.668;19.326;2023-06-22T10:50:14;99359.63;;;41.83;21.70
80424;BME280;69765;47.668;19.326;2023-06-22T10:53:17;99349.91;;;41.81;22.16
80424;BME280;69765;47.668;19.326;2023-06-22T10:56:20;99354.09;;;42.15;21.77
80424;BME280;69765;47.668;19.326;2023-06-22T10:59:22;99349.97;;;40.69;22.11
80424;BME280;69765;47.668;19.326;2023-06-22T11:02:25;99346.41;;;40.18;23.30
80424;BME280;69765;47.668;19.326;2023-06-22T11:05:31;99352.81;;;40.99;22.65
80424;BME280;69765;47.668;19.326;2023-06-22T11:08:34;99338.59;;;41.44;22.37
80424;BME280;69765;47.668;19.326;2023-06-22T11:11:36;99351.03;;;40.82;23.25
80424;BME280;69765;47.668;19.326;2023-06-22T11:14:39;99348.97;;;39.31;24.41
80424;BME280;69765;47.668;19.326;2023-06-22T11:17:41;99349.06;;;39.29;25.22
80424;BME280;69765;47.668;19.326;2023-06-22T11:20:44;99338.25;;;38.35;26.61
80424;BME280;69765;47.668;19.326;2023-06-22T11:23:48;99331.63;;;36.93;28.25
80424;BME280;69765;47.668;19.326;2023-06-22T11:26:50;99342.53;;;36.64;29.34
80424;BME280;69765;47.668;19.326;2023-06-22T11:29:53;99342.03;;;37.01;28.66
80424;BME280;69765;47.668;19.326;2023-06-22T11:32:56;99330.16;;;36.36;29.29
80424;BME280;69765;47.668;19.326;2023-06-22T11:35:59;99332.38;;;36.73;29.50
80424;BME280;69765;47.668;19.326;2023-06-22T11:39:02;99342.41;;;35.92;29.62
80424;BME280;69765;47.668;19.326;2023-06-22T11:42:10;99339.88;;;35.34;32.09
80424;BME280;69765;47.668;19.326;2023-06-22T11:45:12;99333.94;;;35.79;31.35
80424;BME280;69765;47.668;19.326;2023-06-22T11:48:15;99330.34;;;36.31;30.98
80424;BME280;69765;47.668;19.326;2023-06-22T11:51:17;99335.41;;;35.63;34.36
80424;BME280;69765;47.668;19.326;2023-06-22T11:54:19;99331.28;;;34.01;34.30
80424;BME280;69765;47.668;19.326;2023-06-22T11:57:22;99328.53;;;34.37;36.13
80424;BME280;69765;47.668;19.326;2023-06-22T12:00:24;99320.47;;;34.71;33.83
80424;BME280;69765;47.668;19.326;2023-06-22T12:03:31;99329.53;;;35.51;32.31
80424;BME280;69765;47.668;19.326;2023-06-22T12:06:33;99319.81;;;35.50;32.45
80424;BME280;69765;47.668;19.326;2023-06-22T12:09:40;99320.31;;;36.13;31.20
80424;BME280;69765;47.668;19.326;2023-06-22T12:12:42;99307.41;;;36.51;31.23
80424;BME280;69765;47.668;19.326;2023-06-22T12:15:44;99319.84;;;36.52;30.85
80424;BME280;69765;47.668;19.326;2023-06-22T12:18:47;99308.41;;;36.72;31.45
80424;BME280;69765;47.668;19.326;2023-06-22T12:21:49;99305.81;;;36.94;31.62
80424;BME280;69765;47.668;19.326;2023-06-22T12:24:52;99297.44;;;36.56;32.16
80424;BME280;69765;47.668;19.326;2023-06-22T12:27:54;99304.25;;;36.87;29.81
80424;BME280;69765;47.668;19.326;2023-06-22T12:30:57;99291.38;;;36.51;31.21
80424;BME280;69765;47.668;19.326;2023-06-22T12:33:59;99286.00;;;36.76;31.49
80424;BME280;69765;47.668;19.326;2023-06-22T12:37:01;99286.22;;;36.93;31.90
80424;BME280;69765;47.668;19.326;2023-06-22T12:40:04;99280.88;;;37.15;30.46
80424;BME280;69765;47.668;19.326;2023-06-22T12:43:07;99282.13;;;36.83;31.96
80424;BME280;69765;47.668;19.326;2023-06-22T12:46:09;99280.75;;;36.96;32.46
80424;BME280;69765;47.668;19.326;2023-06-22T12:49:12;99283.69;;;36.67;31.96
80424;BME280;69765;47.668;19.326;2023-06-22T12:52:15;99284.25;;;36.75;31.59
80424;BME280;69765;47.668;19.326;2023-06-22T12:55:19;99285.59;;;36.63;31.89
80424;BME280;69765;47.668;19.326;2023-06-22T12:58:31;99273.47;;;36.54;31.73
80424;BME280;69765;47.668;19.326;2023-06-22T13:01:33;99279.03;;;36.48;31.56
80424;BME280;69765;47.668;19.326;2023-06-22T13:04:36;99284.22;;;36.04;32.67
80424;BME280;69765;47.668;19.326;2023-06-22T13:07:38;99274.91;;;35.90;32.00
80424;BME280;69765;47.668;19.326;2023-06-22T13:10:40;99272.88;;;35.45;33.56
80424;BME280;69765;47.668;19.326;2023-06-22T13:13:45;99271.53;;;35.31;35.38
80424;BME280;69765;47.668;19.326;2023-06-22T13:16:47;99258.91;;;35.65;33.22
80424;BME280;69765;47.668;19.326;2023-06-22T13:19:50;99249.06;;;35.92;33.03
80424;BME280;69765;47.668;19.326;2023-06-22T13:22:52;99256.97;;;35.95;32.34
80424;BME280;69765;47.668;19.326;2023-06-22T13:25:55;99249.00;;;35.68;32.63
80424;BME280;69765;47.668;19.326;2023-06-22T13:28:58;99249.47;;;35.00;34.30
80424;BME280;69765;47.668;19.326;2023-06-22T13:32:00;99249.81;;;34.89;35.30
80424;BME280;69765;47.668;19.326;2023-06-22T13:35:03;99243.31;;;34.70;33.97
80424;BME280;69765;47.668;19.326;2023-06-22T13:38:05;99233.41;;;34.45;35.32
80424;BME280;69765;47.668;19.326;2023-06-22T13:41:08;99241.44;;;34.73;33.98
80424;BME280;69765;47.668;19.326;2023-06-22T13:44:10;99240.94;;;34.61;34.78
80424;BME280;69765;47.668;19.326;2023-06-22T13:47:12;99243.91;;;34.79;35.32
80424;BME280;69765;47.668;19.326;2023-06-22T13:50:15;99235.53;;;34.64;34.85
80424;BME280;69765;47.668;19.326;2023-06-22T13:53:17;99235.81;;;34.54;35.61
80424;BME280;69765;47.668;19.326;2023-06-22T13:56:19;99236.63;;;34.56;35.86
80424;BME280;69765;47.668;19.326;2023-06-22T13:59:22;99225.88;;;34.60;34.72
80424;BME280;69765;47.668;19.326;2023-06-22T14:02:26;99235.41;;;34.67;37.17
80424;BME280;69765;47.668;19.326;2023-06-22T14:05:28;99226.69;;;34.62;35.63
80424;BME280;69765;47.668;19.326;2023-06-22T14:08:31;99234.47;;;34.69;35.23
80424;BME280;69765;47.668;19.326;2023-06-22T14:11:43;99228.03;;;34.47;35.07
80424;BME280;69765;47.668;19.326;2023-06-22T14:14:45;99227.50;;;34.34;35.72
80424;BME280;69765;47.668;19.326;2023-06-22T14:17:48;99230.50;;;34.23;35.05
80424;BME280;69765;47.668;19.326;2023-06-22T14:20:50;99215.38;;;34.25;36.63
80424;BME280;69765;47.668;19.326;2023-06-22T14:23:53;99216.78;;;34.06;37.45
80424;BME280;69765;47.668;19.326;2023-06-22T14:26:55;99208.09;;;34.01;36.51
80424;BME280;69765;47.668;19.326;2023-06-22T14:29:58;99210.16;;;33.90;37.13
80424;BME280;69765;47.668;19.326;2023-06-22T14:33:00;99204.53;;;33.68;37.16
80424;BME280;69765;47.668;19.326;2023-06-22T14:36:02;99201.63;;;33.78;38.15
80424;BME280;69765;47.668;19.326;2023-06-22T14:39:05;99192.94;;;33.72;38.90
80424;BME280;69765;47.668;19.326;2023-06-22T14:42:08;99185.97;;;33.33;40.44
80424;BME280;69765;47.668;19.326;2023-06-22T14:45:10;99185.38;;;33.22;39.26
80424;BME280;69765;47.668;19.326;2023-06-22T14:48:13;99180.94;;;33.21;42.07
80424;BME280;69765;47.668;19.326;2023-06-22T14:51:15;99185.69;;;33.10;41.93
80424;BME280;69765;47.668;19.326;2023-06-22T14:54:19;99192.00;;;33.04;42.01
80424;BME280;69765;47.668;19.326;2023-06-22T14:57:21;99181.56;;;32.97;40.14
80424;BME280;69765;47.668;19.326;2023-06-22T15:00:25;99180.31;;;33.12;39.40
80424;BME280;69765;47.668;19.326;2023-06-22T15:03:27;99181.69;;;33.26;41.51
80424;BME280;69765;47.668;19.326;2023-06-22T15:06:32;99168.91;;;33.42;39.58
80424;BME280;69765;47.668;19.326;2023-06-22T15:09:34;99163.66;;;33.41;38.36
80424;BME280;69765;47.668;19.326;2023-06-22T15:12:37;99161.06;;;33.38;39.81
80424;BME280;69765;47.668;19.326;2023-06-22T15:15:39;99161.78;;;33.46;39.20
80424;BME280;69765;47.668;19.326;2023-06-22T15:18:42;99160.53;;;33.57;39.30
80424;BME280;69765;47.668;19.326;2023-06-22T15:21:44;99157.75;;;33.62;38.99
80424;BME280;69765;47.668;19.326;2023-06-22T15:24:47;99159.75;;;33.54;38.56
80424;BME280;69765;47.668;19.326;2023-06-22T15:27:50;99158.84;;;33.21;39.44
80424;BME280;69765;47.668;19.326;2023-06-22T15:30:52;99155.47;;;33.14;40.12
80424;BME280;69765;47.668;19.326;2023-06-22T15:33:54;99153.25;;;32.97;40.94
80424;BME280;69765;47.668;19.326;2023-06-22T15:36:57;99157.22;;;32.78;41.23
80424;BME280;69765;47.668;19.326;2023-06-22T15:40:00;99165.41;;;32.69;41.77
80424;BME280;69765;47.668;19.326;2023-06-22T15:43:02;99159.19;;;32.71;41.88
80424;BME280;69765;47.668;19.326;2023-06-22T15:46:04;99162.03;;;32.62;42.23
80424;BME280;69765;47.668;19.326;2023-06-22T15:49:07;99158.69;;;32.54;43.10
80424;BME280;69765;47.668;19.326;2023-06-22T15:52:09;99159.59;;;32.53;42.31
80424;BME280;69765;47.668;19.326;2023-06-22T15:55:11;99167.13;;;32.33;41.70
80424;BME280;69765;47.668;19.326;2023-06-22T15:58:14;99163.09;;;32.15;45.00
80424;BME280;69765;47.668;19.326;2023-06-22T16:01:19;99167.66;;;32.06;43.27
80424;BME280;69765;47.668;19.326;2023-06-22T16:04:21;99168.19;;;32.22;43.19
80424;BME280;69765;47.668;19.326;2023-06-22T16:07:24;99167.94;;;32.35;43.38